Lac Ste. Marie, Canada
Current Conditions -  °F | °C
As of 7:00 PM on Saturday 22 Nov 2014 (Local Time) from CYND Reporting Station
Overcast Overcast  
Wind Chill: 32°   Ceiling: 1700
Heat Index: 36°   Visibility: 15mi
Dew Point: 32°   Wind: 5mph
Humidity: 87%   Direction: 260°W
Pressure: 29.88"   Gusts: NA
Location:  45.97°N, 75.93°W
Report Text: CYND 230000Z 26004KT 15SM OVC017 02/M00 A2988 RMK SC8 SLP123
Loading
Personal Weather Stations






























Interactive Weather Map New forecast layout! Learn more

10-Day Weather Forecast

Advertisements
Track Severe Weather on mobile